Terminal Aerodrome Forecast
Issued by NWS

Home | Current Version | Previous Version | Text Only | Print | Product List | Glossary On
Versions: 1 2 3 4 5 6 7 8 9 10 11 12 13 14 15 16 17 18 19 20 21 22
000
FTUS43 KBIS 020530
TAFMOT
TAF
KMOT 020530Z 0206/0306 VRB03KT 5SM BR FU BKN050
     FM021000 25004KT 3SM FU BR BKN030
     FM021500 30006KT 6SM FU SCT050
     FM030000 33007KT P6SM SKC=

USA.gov is the U.S. government's official web portal to all federal, state and local government web resources and services.